Time;durP1;ratioP1;P1;durP2;ratioP2;P2;SDS_P1;SDS_P2;PMS_P1;PMS_P2;Temp;Humidity;BMP_temperature;BMP_pressure;BME280_temperature;BME280_humidity;BME280_pressure;Samples;Min_cycle;Max_cycle;Signal;HPM_P1;HPM_P2
2022/11/28 00:01:28;;;;;;;148.52;84.10;;;5.60;99.90;;;;;;6041766;23;20046;-82
2022/11/28 00:03:56;;;;;;;176.82;97.53;;;5.50;99.90;;;;;;6007218;23;20027;-83
2022/11/28 00:06:23;;;;;;;174.23;95.75;;;5.40;99.90;;;;;;6042249;23;20051;-83
2022/11/28 00:08:51;;;;;;;170.88;95.28;;;5.40;99.90;;;;;;6043471;23;20020;-84
2022/11/28 00:11:18;;;;;;;167.90;93.40;;;5.40;99.90;;;;;;6018362;23;20433;-83
2022/11/28 00:13:47;;;;;;;170.80;96.40;;;5.40;99.90;;;;;;6050331;23;20025;-84
2022/11/28 00:16:20;;;;;;;164.60;92.35;;;5.40;99.90;;;;;;6043199;23;20016;-83
2022/11/28 00:18:47;;;;;;;148.02;81.80;;;5.50;99.90;;;;;;6007689;23;20027;-84
2022/11/28 00:21:15;;;;;;;196.52;109.97;;;5.40;99.90;;;;;;6042636;23;20077;-85
2022/11/28 00:23:45;;;;;;;165.68;93.85;;;5.30;99.90;;;;;;6042675;23;20114;-84
2022/11/28 00:26:20;;;;;;;153.73;85.53;;;5.20;99.90;;;;;;6008293;23;20463;-84
2022/11/28 00:28:50;;;;;;;125.07;67.97;;;5.20;99.90;;;;;;6042486;23;20050;-84
2022/11/28 00:31:19;;;;;;;132.30;74.28;;;5.20;99.90;;;;;;6042353;23;20061;-82
2022/11/28 00:33:47;;;;;;;123.82;70.82;;;5.20;99.90;;;;;;6043314;23;20019;-83
2022/11/28 00:36:14;;;;;;;117.82;65.10;;;5.20;99.90;;;;;;6041980;23;20015;-83
2022/11/28 00:38:43;;;;;;;107.70;60.80;;;5.00;99.90;;;;;;6042422;23;20367;-84
2022/11/28 00:41:12;;;;;;;116.22;65.43;;;4.90;99.90;;;;;;6007143;23;20098;-84
2022/11/28 00:43:40;;;;;;;105.97;60.33;;;4.90;99.90;;;;;;6047540;23;20071;-84
2022/11/28 00:46:09;;;;;;;115.28;64.53;;;4.80;99.90;;;;;;6066086;23;20024;-83
2022/11/28 00:48:37;;;;;;;108.30;58.80;;;4.80;99.90;;;;;;6044904;23;20081;-84
2022/11/28 00:51:08;;;;;;;98.35;54.95;;;4.70;99.90;;;;;;6043314;23;20019;-85
2022/11/28 00:53:36;;;;;;;103.05;55.38;;;4.70;99.90;;;;;;6008310;23;20026;-84
2022/11/28 00:56:05;;;;;;;112.65;61.58;;;4.70;99.90;;;;;;6021457;23;20467;-83
2022/11/28 00:58:33;;;;;;;114.35;61.97;;;4.80;99.90;;;;;;6045572;23;20027;-84
2022/11/28 01:01:01;;;;;;;117.20;63.95;;;4.80;99.90;;;;;;6050659;23;20030;-83
2022/11/28 01:03:29;;;;;;;88.75;49.13;;;4.90;99.90;;;;;;6049290;23;20019;-84
2022/11/28 01:05:57;;;;;;;73.53;40.63;;;4.90;99.90;;;;;;6050588;23;20011;-83
2022/11/28 01:08:24;;;;;;;86.55;47.70;;;4.90;99.90;;;;;;6019484;23;20080;-85
2022/11/28 01:10:51;;;;;;;71.80;42.67;;;5.00;99.90;;;;;;6067382;23;20014;-82
2022/11/28 01:13:18;;;;;;;75.82;44.33;;;5.00;99.90;;;;;;6066243;23;20022;-84
2022/11/28 01:15:46;;;;;;;68.47;39.92;;;5.00;99.90;;;;;;6048471;23;20019;-83
2022/11/28 01:18:13;;;;;;;76.00;42.00;;;4.80;99.90;;;;;;6047063;23;20016;-84
2022/11/28 01:20:42;;;;;;;64.50;37.75;;;4.90;99.90;;;;;;6045462;23;20016;-85
2022/11/28 01:23:09;;;;;;;58.00;33.08;;;4.90;99.90;;;;;;6043766;23;20348;-85
2022/11/28 01:25:37;;;;;;;57.92;33.25;;;4.80;99.90;;;;;;6043614;23;20026;-84
2022/11/28 01:28:04;;;;;;;56.78;32.88;;;4.90;99.90;;;;;;6043821;23;20026;-83
2022/11/28 01:30:33;;;;;;;63.55;36.00;;;5.00;99.90;;;;;;6042959;23;20026;-84
2022/11/28 01:33:00;;;;;;;64.60;37.05;;;5.10;99.90;;;;;;6044578;23;20020;-83
2022/11/28 01:35:28;;;;;;;61.30;35.85;;;5.20;99.90;;;;;;6050052;23;20070;-83
2022/11/28 01:37:56;;;;;;;62.58;37.88;;;5.20;99.90;;;;;;6050474;23;20027;-84
2022/11/28 01:40:24;;;;;;;61.88;37.15;;;5.30;99.90;;;;;;6052036;23;20023;-84
2022/11/28 01:42:51;;;;;;;65.82;39.42;;;5.20;99.90;;;;;;6048209;23;20019;-85
2022/11/28 01:45:21;;;;;;;66.55;39.72;;;5.20;99.90;;;;;;6042858;23;20352;-83
2022/11/28 01:47:51;;;;;;;67.30;38.83;;;5.20;99.90;;;;;;6042919;23;20073;-82
2022/11/28 01:50:20;;;;;;;53.80;33.83;;;5.10;99.90;;;;;;6042626;23;20016;-84
2022/11/28 01:52:53;;;;;;;50.47;30.83;;;5.10;99.90;;;;;;6044855;23;20019;-84
2022/11/28 01:55:25;;;;;;;50.63;31.45;;;4.90;99.90;;;;;;6043441;23;20065;-83
2022/11/28 01:57:55;;;;;;;50.35;31.73;;;4.80;99.90;;;;;;6042753;23;20050;-84
2022/11/28 02:00:23;;;;;;;54.47;32.38;;;4.80;99.90;;;;;;6042864;23;20015;-84
2022/11/28 02:02:53;;;;;;;52.00;33.17;;;4.60;99.90;;;;;;6042148;23;20094;-83
2022/11/28 02:05:21;;;;;;;65.80;36.83;;;4.50;99.90;;;;;;6043364;23;20077;-84
2022/11/28 02:07:50;;;;;;;66.57;39.72;;;4.60;99.90;;;;;;6047527;23;20020;-83
2022/11/28 02:10:23;;;;;;;64.90;40.65;;;4.50;99.90;;;;;;6018938;23;20048;-84
2022/11/28 02:13:18;;;;;;;65.35;39.90;;;4.40;99.90;;;;;;6053873;23;20069;-85
2022/11/28 02:16:00;;;;;;;84.22;49.40;;;4.20;99.90;;;;;;6044808;23;20456;-83
2022/11/28 02:18:43;;;;;;;141.77;75.05;;;4.10;99.90;;;;;;6061859;23;20019;-84
2022/11/28 02:21:28;;;;;;;111.07;60.60;;;4.00;99.90;;;;;;6043525;23;20073;-85
2022/11/28 02:24:37;;;;;;;58.15;34.83;;;4.00;99.90;;;;;;6042679;23;20027;-84
2022/11/28 02:27:43;;;;;;;105.63;61.55;;;3.90;99.90;;;;;;6044272;23;20023;-84
2022/11/28 02:30:18;;;;;;;92.15;50.15;;;3.80;99.90;;;;;;6007540;23;20046;-83
2022/11/28 02:33:01;;;;;;;83.35;50.30;;;3.70;99.90;;;;;;6007232;23;20019;-83
2022/11/28 02:35:36;;;;;;;77.85;48.38;;;3.60;99.90;;;;;;6042242;23;20101;-82
2022/11/28 02:38:13;;;;;;;71.57;45.85;;;3.60;99.90;;;;;;6041523;23;20500;-84
2022/11/28 02:40:49;;;;;;;66.82;43.28;;;3.60;99.90;;;;;;6007543;23;20364;-84
2022/11/28 02:43:24;;;;;;;76.75;49.50;;;3.50;99.90;;;;;;6041272;23;20019;-83
2022/11/28 02:45:58;;;;;;;98.95;60.63;;;3.40;99.90;;;;;;6041402;23;20383;-85
2022/11/28 02:48:36;;;;;;;81.88;52.83;;;3.40;99.90;;;;;;6007410;23;20023;-84
2022/11/28 02:51:09;;;;;;;83.90;51.05;;;3.30;99.90;;;;;;6041680;23;20043;-85
2022/11/28 02:53:38;;;;;;;93.45;54.50;;;3.40;99.90;;;;;;6042118;23;20019;-84
2022/11/28 02:56:06;;;;;;;75.55;43.47;;;3.40;99.90;;;;;;6041792;23;20463;-84
2022/11/28 02:58:34;;;;;;;77.90;44.13;;;3.40;99.90;;;;;;6042311;23;20019;-84
2022/11/28 03:01:01;;;;;;;75.22;42.88;;;3.50;99.90;;;;;;6042138;23;20019;-85
2022/11/28 03:04:14;;;;;;;78.88;43.25;;;3.60;99.90;;;;;;6041975;23;20023;-85
2022/11/28 03:06:51;;;;;;;65.55;34.47;;;3.70;99.90;;;;;;5972023;23;20031;-82
2022/11/28 03:09:54;;;;;;;66.53;36.53;;;3.70;99.90;;;;;;6046225;23;20066;-84
2022/11/28 03:12:31;;;;;;;69.97;38.10;;;3.70;99.90;;;;;;6041637;23;20030;-84
2022/11/28 03:15:01;;;;;;;67.43;38.97;;;3.80;99.90;;;;;;6042390;23;20078;-84
2022/11/28 03:17:37;;;;;;;64.25;38.75;;;3.80;99.90;;;;;;6042415;23;20122;-83
2022/11/28 03:20:29;;;;;;;66.40;38.65;;;3.80;99.90;;;;;;6042749;23;20039;-84
2022/11/28 03:23:06;;;;;;;64.75;38.15;;;3.90;99.90;;;;;;6042102;23;20317;-84
2022/11/28 03:25:40;;;;;;;68.47;37.33;;;3.80;99.90;;;;;;6043214;23;20023;-84
2022/11/28 03:28:11;;;;;;;67.75;37.45;;;3.90;99.90;;;;;;6008169;23;20024;-85
2022/11/28 03:30:44;;;;;;;67.03;40.63;;;3.80;99.90;;;;;;6042685;23;20011;-85
2022/11/28 03:33:14;;;;;;;64.35;37.33;;;3.80;99.90;;;;;;6042355;23;20023;-84
2022/11/28 03:35:48;;;;;;;65.45;38.60;;;3.70;99.90;;;;;;6042488;23;20023;-84
2022/11/28 03:38:21;;;;;;;65.10;38.08;;;3.70;99.90;;;;;;6041670;23;20655;-83
2022/11/28 03:40:52;;;;;;;68.47;39.42;;;3.60;99.90;;;;;;6007972;23;20505;-85
2022/11/28 03:43:24;;;;;;;69.97;40.42;;;3.50;99.90;;;;;;6042927;23;20034;-85
2022/11/28 03:45:56;;;;;;;71.35;41.03;;;3.40;99.90;;;;;;6051945;23;20022;-83
2022/11/28 03:48:29;;;;;;;76.35;40.75;;;3.20;99.90;;;;;;6063503;23;20015;-84
2022/11/28 03:51:02;;;;;;;70.63;42.30;;;3.10;99.90;;;;;;6044258;23;20022;-83
2022/11/28 03:53:36;;;;;;;72.97;43.38;;;3.00;99.90;;;;;;6043653;23;20405;-85
2022/11/28 03:56:10;;;;;;;68.80;40.78;;;2.90;99.90;;;;;;6044153;23;20019;-84
2022/11/28 03:58:40;;;;;;;71.75;41.35;;;2.90;99.90;;;;;;6009758;23;20019;-84
2022/11/28 04:01:20;;;;;;;77.80;41.88;;;2.80;99.90;;;;;;6042541;23;20019;-84
2022/11/28 04:03:57;;;;;;;75.80;42.55;;;2.80;99.90;;;;;;6047522;23;20433;-84
2022/11/28 04:06:30;;;;;;;85.53;50.33;;;2.70;99.90;;;;;;6046904;23;20032;-82
2022/11/28 04:09:02;;;;;;;88.47;53.40;;;2.70;99.90;;;;;;6051421;23;20016;-84
2022/11/28 04:11:37;;;;;;;102.55;58.40;;;2.60;99.90;;;;;;6046313;23;20460;-84
2022/11/28 04:14:13;;;;;;;100.22;58.50;;;2.50;99.90;;;;;;6014350;23;20023;-83
2022/11/28 04:16:45;;;;;;;102.80;60.70;;;2.40;99.90;;;;;;6058995;23;20121;-81
2022/11/28 04:19:19;;;;;;;99.10;59.17;;;2.30;99.90;;;;;;6051962;23;20011;-82
2022/11/28 04:21:54;;;;;;;101.90;61.20;;;2.20;99.90;;;;;;6025283;23;20035;-81
2022/11/28 04:24:23;;;;;;;;;;;2.10;99.90;;;;;;6059994;23;20015;-83
2022/11/28 04:26:56;;;;;;;108.32;67.68;;;2.10;99.90;;;;;;6053851;23;19973;-81
2022/11/28 04:29:24;;;;;;;109.50;63.85;;;2.00;99.90;;;;;;6051589;23;20214;-82
2022/11/28 04:31:55;;;;;;;96.65;56.53;;;1.90;99.90;;;;;;6041073;23;20078;-83
2022/11/28 04:34:25;;;;;;;96.60;57.28;;;1.90;99.90;;;;;;6042524;23;20020;-82
2022/11/28 04:36:56;;;;;;;99.93;60.70;;;1.90;99.90;;;;;;6041854;23;20023;-83
2022/11/28 04:39:28;;;;;;;91.55;55.45;;;1.90;99.90;;;;;;6041410;23;20114;-81
2022/11/28 04:42:05;;;;;;;100.85;56.30;;;1.90;99.90;;;;;;6040617;23;20023;-83
2022/11/28 04:44:39;;;;;;;97.00;57.95;;;1.90;99.90;;;;;;6041307;23;20022;-82
2022/11/28 04:47:07;;;;;;;98.65;59.10;;;1.90;99.90;;;;;;6040982;23;20020;-82
2022/11/28 04:49:34;;;;;;;108.13;64.75;;;1.90;99.90;;;;;;6041436;23;20026;-82
2022/11/28 04:52:08;;;;;;;87.80;53.45;;;1.80;99.90;;;;;;6006157;23;20023;-84
2022/11/28 04:54:43;;;;;;;104.10;64.10;;;1.70;99.90;;;;;;6041361;23;20099;-82
2022/11/28 04:57:17;;;;;;;103.65;59.70;;;1.70;99.90;;;;;;6009851;23;20016;-82
2022/11/28 04:59:46;;;;;;;87.93;53.33;;;1.50;99.90;;;;;;6042948;23;20028;-81
2022/11/28 05:02:16;;;;;;;94.82;57.85;;;1.50;99.90;;;;;;6040974;23;20018;-83
2022/11/28 05:04:44;;;;;;;103.93;60.55;;;1.40;99.90;;;;;;6041076;23;20340;-82
2022/11/28 05:07:13;;;;;;;101.07;60.25;;;1.30;99.90;;;;;;6043290;23;20090;-82
2022/11/28 05:09:40;;;;;;;110.90;66.65;;;1.30;99.90;;;;;;6045578;23;20019;-83
2022/11/28 05:12:08;;;;;;;99.45;58.85;;;1.30;99.90;;;;;;6049054;23;20054;-84
2022/11/28 05:14:35;;;;;;;95.13;55.50;;;1.20;99.90;;;;;;6057304;23;20020;-82
2022/11/28 05:17:03;;;;;;;101.13;56.53;;;1.20;99.90;;;;;;6060555;23;20058;-81
2022/11/28 05:19:30;;;;;;;98.10;57.00;;;1.20;99.90;;;;;;6059789;23;20020;-82
2022/11/28 05:21:57;;;;;;;104.50;61.60;;;1.20;99.90;;;;;;6043085;23;20022;-82
2022/11/28 05:24:26;;;;;;;112.05;70.45;;;1.20;99.90;;;;;;6044889;23;20046;-83
2022/11/28 05:26:53;;;;;;;109.20;63.88;;;1.20;99.90;;;;;;6045631;23;20019;-82
2022/11/28 05:29:21;;;;;;;103.18;62.45;;;1.10;99.90;;;;;;6048735;23;20019;-81
2022/11/28 05:31:48;;;;;;;106.38;61.00;;;1.10;99.90;;;;;;6049050;23;20011;-82
2022/11/28 05:34:15;;;;;;;111.50;61.60;;;1.00;99.90;;;;;;6014604;23;20023;-81
2022/11/28 05:36:42;;;;;;;94.38;54.97;;;1.00;99.90;;;;;;6045008;23;20031;-82
2022/11/28 05:39:10;;;;;;;78.78;46.55;;;1.10;99.90;;;;;;6043611;23;20023;-82
2022/11/28 05:41:39;;;;;;;82.95;47.30;;;1.10;99.90;;;;;;6043192;23;20012;-81
2022/11/28 05:44:07;;;;;;;84.55;47.50;;;1.10;99.90;;;;;;6044327;23;20444;-82
2022/11/28 05:46:34;;;;;;;88.47;51.50;;;1.10;99.90;;;;;;6043014;23;20019;-80
2022/11/28 05:49:02;;;;;;;106.15;58.40;;;1.10;99.90;;;;;;6042382;23;20022;-81
2022/11/28 05:51:29;;;;;;;119.22;64.45;;;1.00;99.90;;;;;;6042977;23;20020;-83
2022/11/28 05:53:56;;;;;;;127.57;69.63;;;1.00;99.90;;;;;;6044258;23;20432;-84
2022/11/28 05:56:23;;;;;;;124.82;69.68;;;1.00;99.90;;;;;;6057568;23;20023;-80
2022/11/28 05:58:53;;;;;;;135.63;70.32;;;1.00;99.90;;;;;;6049974;23;20027;-80
2022/11/28 06:01:23;;;;;;;133.65;72.15;;;1.00;99.90;;;;;;6043808;23;20046;-81
2022/11/28 06:03:56;;;;;;;129.32;75.90;;;1.00;99.90;;;;;;6044716;23;20062;-80
2022/11/28 06:06:25;;;;;;;144.60;77.35;;;1.00;99.90;;;;;;6044174;23;20031;-81
2022/11/28 06:08:52;;;;;;;164.38;91.65;;;0.90;99.90;;;;;;6055957;23;20015;-81
2022/11/28 06:11:22;;;;;;;184.60;109.57;;;0.90;99.90;;;;;;6048020;23;20027;-81
2022/11/28 06:13:50;;;;;;;169.15;96.65;;;0.90;99.90;;;;;;6045657;23;20023;-81
2022/11/28 06:16:21;;;;;;;172.25;101.45;;;0.90;99.90;;;;;;6047445;23;20074;-82
2022/11/28 06:18:52;;;;;;;140.63;85.93;;;0.90;99.90;;;;;;6050079;23;20016;-82
2022/11/28 06:21:19;;;;;;;123.47;74.05;;;0.90;99.90;;;;;;6045569;23;20015;-82
2022/11/28 06:23:47;;;;;;;116.20;68.45;;;0.90;99.90;;;;;;6050154;23;20050;-83
2022/11/28 06:26:16;;;;;;;127.80;74.13;;;1.00;99.90;;;;;;6052082;23;20023;-82
2022/11/28 06:28:43;;;;;;;131.32;79.60;;;0.90;99.90;;;;;;6047942;23;20020;-81
2022/11/28 06:31:12;;;;;;;133.32;76.40;;;0.90;99.90;;;;;;6029093;23;20023;-82
2022/11/28 06:33:41;;;;;;;135.85;79.13;;;0.90;99.90;;;;;;6039036;23;20053;-81
2022/11/28 06:36:10;;;;;;;132.57;79.03;;;0.90;99.90;;;;;;6068918;23;20026;-82
2022/11/28 06:38:38;;;;;;;134.40;80.95;;;1.00;99.90;;;;;;6067971;23;20015;-82
2022/11/28 06:41:08;;;;;;;130.75;75.13;;;1.00;99.90;;;;;;6063011;23;20152;-81
2022/11/28 06:43:35;;;;;;;150.43;85.57;;;1.10;99.90;;;;;;6054655;23;20011;-82
2022/11/28 06:46:03;;;;;;;146.32;84.57;;;1.20;99.90;;;;;;6060923;23;20015;-80
2022/11/28 06:48:31;;;;;;;134.93;80.10;;;1.20;99.90;;;;;;6062340;23;20016;-82
2022/11/28 06:51:04;;;;;;;134.60;74.35;;;1.30;99.90;;;;;;6055157;23;20026;-81
2022/11/28 06:53:32;;;;;;;130.35;72.85;;;1.40;99.90;;;;;;6064745;23;20038;-82
2022/11/28 06:56:04;;;;;;;118.38;66.57;;;1.50;99.90;;;;;;6033638;23;20018;-83
2022/11/28 06:58:31;;;;;;;116.53;62.28;;;1.60;99.90;;;;;;6067828;23;19996;-81
2022/11/28 07:01:05;;;;;;;103.07;57.70;;;1.70;99.90;;;;;;6066853;23;20071;-81
2022/11/28 07:03:33;;;;;;;113.72;58.97;;;1.80;99.90;;;;;;6054878;23;20015;-78
2022/11/28 07:06:01;;;;;;;115.28;62.33;;;1.90;99.90;;;;;;6054437;23;20432;-78
2022/11/28 07:08:30;;;;;;;131.07;67.93;;;2.00;99.90;;;;;;6056208;23;20419;-76
2022/11/28 07:10:57;;;;;;;123.18;65.30;;;2.10;99.90;;;;;;6050022;23;20031;-80
2022/11/28 07:13:25;;;;;;;197.75;93.18;;;2.20;99.90;;;;;;6051720;23;20015;-79
2022/11/28 07:15:52;;;;;;;250.48;109.28;;;2.30;99.90;;;;;;6057796;23;20075;-79
2022/11/28 07:18:20;;;;;;;197.23;95.60;;;2.30;99.90;;;;;;6045007;23;20391;-79
2022/11/28 07:20:47;;;;;;;173.27;90.30;;;2.30;99.90;;;;;;6047065;23;20070;-78
2022/11/28 07:23:14;;;;;;;172.68;89.82;;;2.40;99.90;;;;;;6041888;23;20019;-78
2022/11/28 07:25:43;;;;;;;163.95;84.22;;;2.50;99.90;;;;;;6041687;23;20022;-79
2022/11/28 07:28:10;;;;;;;199.45;98.60;;;2.50;99.90;;;;;;6042263;23;20352;-79
2022/11/28 07:30:38;;;;;;;191.70;103.53;;;2.60;99.90;;;;;;6042191;23;20039;-79
2022/11/28 07:33:05;;;;;;;203.85;108.70;;;2.70;99.90;;;;;;6006592;23;20015;-77
2022/11/28 07:35:33;;;;;;;211.57;111.07;;;2.80;99.90;;;;;;6007365;23;20445;-78
2022/11/28 07:38:01;;;;;;;226.45;118.68;;;2.90;99.90;;;;;;6042919;23;20023;-78
2022/11/28 07:40:29;;;;;;;226.80;118.18;;;3.00;99.90;;;;;;6043413;23;20016;-80
2022/11/28 07:42:59;;;;;;;271.00;136.65;;;2.90;99.90;;;;;;6045487;23;20022;-80
2022/11/28 07:45:26;;;;;;;238.02;127.60;;;2.80;99.90;;;;;;6042488;23;20090;-79
2022/11/28 07:47:53;;;;;;;243.10;128.20;;;2.90;99.90;;;;;;6041547;23;20026;-79
2022/11/28 07:50:21;;;;;;;248.40;134.65;;;2.90;99.90;;;;;;6041774;23;20572;-78
2022/11/28 07:52:50;;;;;;;254.65;130.85;;;3.00;99.90;;;;;;6041232;23;20333;-77
2022/11/28 07:55:17;;;;;;;226.30;124.93;;;2.90;99.90;;;;;;6042099;23;20015;-79
2022/11/28 07:57:45;;;;;;;209.18;109.32;;;3.10;99.90;;;;;;6041722;23;20026;-78
2022/11/28 08:00:15;;;;;;;155.25;89.70;;;3.20;99.90;;;;;;6007729;23;20219;-76
2022/11/28 08:02:43;;;;;;;179.63;102.00;;;3.40;99.90;;;;;;6041088;23;20030;-80
2022/11/28 08:05:12;;;;;;;193.20;103.68;;;3.60;99.90;;;;;;6042635;23;20035;-78
2022/11/28 08:07:39;;;;;;;178.27;101.75;;;3.70;99.90;;;;;;6042089;23;20031;-78
2022/11/28 08:10:08;;;;;;;191.48;104.03;;;3.80;99.90;;;;;;6042268;23;20019;-77
2022/11/28 08:12:35;;;;;;;193.73;109.90;;;3.80;99.90;;;;;;6041687;23;20025;-79
2022/11/28 08:15:03;;;;;;;184.93;106.13;;;3.80;99.90;;;;;;6042248;23;20337;-77
2022/11/28 08:17:34;;;;;;;212.27;117.45;;;3.80;99.90;;;;;;6041610;23;20388;-77
2022/11/28 08:20:01;;;;;;;192.57;113.25;;;3.90;99.90;;;;;;6009119;23;20046;-78
2022/11/28 08:22:29;;;;;;;202.90;116.00;;;3.90;99.90;;;;;;6041133;23;20073;-80
2022/11/28 08:24:56;;;;;;;175.02;104.13;;;4.10;99.90;;;;;;6041234;23;20019;-78
2022/11/28 08:27:23;;;;;;;161.88;90.38;;;4.30;99.90;;;;;;6043434;23;20027;-77
2022/11/28 08:29:51;;;;;;;164.98;97.55;;;4.40;99.90;;;;;;6042637;23;20019;-78
2022/11/28 08:32:19;;;;;;;163.68;92.03;;;4.50;99.90;;;;;;6042305;23;20016;-79
2022/11/28 08:34:52;;;;;;;148.75;88.35;;;4.70;99.90;;;;;;6048266;23;20012;-79
2022/11/28 08:37:20;;;;;;;172.45;94.72;;;4.80;99.90;;;;;;6041137;23;20015;-79
2022/11/28 08:39:47;;;;;;;150.75;87.63;;;4.90;99.90;;;;;;6042650;23;20070;-77
2022/11/28 08:42:15;;;;;;;151.20;90.03;;;5.00;99.90;;;;;;6042115;23;20062;-80
2022/11/28 08:44:42;;;;;;;165.05;94.88;;;5.30;99.90;;;;;;6043495;23;20015;-79
2022/11/28 08:47:09;;;;;;;150.55;87.03;;;5.40;99.90;;;;;;6043502;23;20019;-79
2022/11/28 08:49:37;;;;;;;153.15;88.50;;;5.60;99.90;;;;;;6042968;23;20060;-78
2022/11/28 08:52:07;;;;;;;137.48;77.53;;;5.70;99.90;;;;;;6043703;23;20016;-79
2022/11/28 08:54:34;;;;;;;103.47;60.25;;;5.90;99.90;;;;;;6044954;23;20020;-79
2022/11/28 08:57:01;;;;;;;82.95;48.80;;;5.90;99.90;;;;;;6048944;23;20019;-80
2022/11/28 08:59:29;;;;;;;73.55;42.10;;;6.10;99.90;;;;;;6045616;23;20030;-79
2022/11/28 09:01:56;;;;;;;64.97;38.63;;;6.00;99.90;;;;;;6043677;23;20365;-77
2022/11/28 09:04:24;;;;;;;61.33;36.28;;;6.10;99.90;;;;;;6046944;23;20023;-80
2022/11/28 09:06:51;;;;;;;56.28;32.00;;;6.10;99.90;;;;;;6046877;23;20019;-78
2022/11/28 09:09:20;;;;;;;62.95;35.92;;;6.00;99.90;;;;;;6044815;23;20022;-79
2022/11/28 09:11:47;;;;;;;56.72;31.85;;;6.20;99.90;;;;;;6043352;23;20523;-79
2022/11/28 09:14:15;;;;;;;53.25;29.48;;;6.30;99.90;;;;;;6054907;23;20023;-78
2022/11/28 09:16:43;;;;;;;58.72;31.98;;;6.20;99.90;;;;;;6054331;23;20411;-78
2022/11/28 09:19:10;;;;;;;50.78;30.83;;;6.20;99.90;;;;;;6048194;23;20019;-77
2022/11/28 09:21:39;;;;;;;54.58;30.50;;;6.30;99.90;;;;;;6045329;23;20019;-79
2022/11/28 09:24:08;;;;;;;49.75;28.48;;;6.30;99.90;;;;;;6008383;23;20043;-77
2022/11/28 09:26:36;;;;;;;51.25;30.63;;;6.40;99.90;;;;;;6043242;23;20023;-79
2022/11/28 09:29:04;;;;;;;52.80;30.85;;;6.50;99.90;;;;;;6043525;23;20019;-77
2022/11/28 09:31:31;;;;;;;54.58;30.25;;;6.60;99.90;;;;;;6012102;23;20020;-78
2022/11/28 09:33:58;;;;;;;49.88;27.63;;;6.70;99.90;;;;;;6058956;23;20015;-78
2022/11/28 09:36:27;;;;;;;59.72;33.63;;;6.70;99.90;;;;;;6060434;23;20019;-78
2022/11/28 09:38:54;;;;;;;51.70;29.33;;;6.80;99.90;;;;;;6023720;23;20127;-78
2022/11/28 09:41:52;;;;;;;52.25;30.08;;;6.80;99.90;;;;;;6044080;23;20011;-78
2022/11/28 09:44:23;;;;;;;49.72;28.08;;;6.80;99.90;;;;;;6042366;23;20019;-76
2022/11/28 09:46:53;;;;;;;47.65;25.95;;;7.00;99.90;;;;;;6042051;23;20019;-79
2022/11/28 09:49:30;;;;;;;48.42;27.90;;;7.00;99.90;;;;;;6043239;23;20074;-79
2022/11/28 09:52:03;;;;;;;48.72;27.42;;;7.00;99.90;;;;;;6047833;23;20019;-78
2022/11/28 09:54:40;;;;;;;44.75;26.05;;;7.10;99.90;;;;;;6045933;23;20061;-79
2022/11/28 09:57:16;;;;;;;48.97;26.58;;;7.40;99.90;;;;;;6044091;23;20085;-78
2022/11/28 09:59:43;;;;;;;48.50;26.88;;;7.50;99.90;;;;;;6008711;23;20046;-78
2022/11/28 10:02:27;;;;;;;45.50;27.85;;;7.50;99.90;;;;;;6041526;23;20019;-79
2022/11/28 10:05:05;;;;;;;47.65;26.83;;;7.70;99.90;;;;;;6044481;23;20046;-80
2022/11/28 10:07:43;;;;;;;45.30;26.73;;;7.70;99.90;;;;;;6042945;23;20023;-79
2022/11/28 10:10:21;;;;;;;43.58;25.95;;;7.70;99.90;;;;;;6042280;23;20041;-80
2022/11/28 10:12:59;;;;;;;43.22;24.55;;;7.70;99.90;;;;;;6008577;23;20067;-78
2022/11/28 10:15:44;;;;;;;40.20;24.27;;;7.90;99.90;;;;;;6044117;23;20094;-78
2022/11/28 10:18:26;;;;;;;42.15;23.85;;;8.10;99.90;;;;;;6041955;23;20020;-78
2022/11/28 10:20:58;;;;;;;108.45;62.45;;;8.20;99.90;;;;;;6042844;23;20048;-78
2022/11/28 10:23:30;;;;;;;39.45;22.20;;;8.10;99.90;;;;;;6040972;23;20066;-79
2022/11/28 10:26:00;;;;;;;33.80;19.85;;;8.30;99.90;;;;;;6042311;23;20039;-78
2022/11/28 10:28:32;;;;;;;33.50;20.88;;;8.30;99.90;;;;;;6042591;23;20023;-78
2022/11/28 10:31:04;;;;;;;34.60;20.98;;;8.10;99.90;;;;;;6042507;23;20011;-78
2022/11/28 10:33:38;;;;;;;29.67;17.52;;;8.20;99.90;;;;;;6007340;23;20027;-78
2022/11/28 10:36:07;;;;;;;31.67;19.67;;;8.20;99.90;;;;;;6028797;23;20019;-78
2022/11/28 10:38:36;;;;;;;29.65;18.55;;;8.30;99.90;;;;;;6042612;23;20053;-78
2022/11/28 10:41:13;;;;;;;28.05;17.42;;;8.30;99.90;;;;;;6041090;23;20026;-79
2022/11/28 10:43:48;;;;;;;29.95;18.48;;;8.20;99.90;;;;;;6041731;23;20015;-83
2022/11/28 10:46:51;;;;;;;29.55;18.52;;;8.30;99.90;;;;;;6006830;23;20133;-77
2022/11/28 10:49:34;;;;;;;30.60;18.48;;;8.40;99.90;;;;;;6007239;23;20023;-76
2022/11/28 10:52:14;;;;;;;35.65;21.23;;;8.30;99.90;;;;;;6040984;23;20023;-79
2022/11/28 10:54:53;;;;;;;32.63;19.80;;;8.30;99.90;;;;;;6042597;23;20020;-79
2022/11/28 10:57:25;;;;;;;28.50;16.30;;;8.10;99.90;;;;;;6042557;23;20050;-80
2022/11/28 11:00:06;;;;;;;28.08;16.63;;;8.30;99.90;;;;;;6041960;23;20605;-81
2022/11/28 11:02:38;;;;;;;28.73;17.50;;;8.30;99.90;;;;;;6041045;23;20058;-79
2022/11/28 11:05:06;;;;;;;26.20;15.65;;;8.30;99.90;;;;;;6041909;23;20091;-81
2022/11/28 11:07:35;;;;;;;26.40;16.60;;;8.40;99.90;;;;;;6041607;23;20057;-78
2022/11/28 11:10:15;;;;;;;27.98;16.83;;;8.40;99.90;;;;;;6041758;23;20039;-78
2022/11/28 11:12:46;;;;;;;31.77;18.42;;;8.60;99.90;;;;;;6006257;23;20020;-78
2022/11/28 11:15:22;;;;;;;42.15;22.00;;;8.70;99.90;;;;;;6041554;23;20078;-82
2022/11/28 11:17:52;;;;;;;31.45;19.70;;;8.80;99.90;;;;;;6041432;23;20046;-82
2022/11/28 11:20:36;;;;;;;29.50;16.63;;;8.80;99.90;;;;;;6041822;23;20019;-81
2022/11/28 11:23:13;;;;;;;26.90;16.27;;;8.90;99.90;;;;;;6039241;23;20591;-78
2022/11/28 11:25:48;;;;;;;25.42;16.35;;;8.80;99.90;;;;;;6042403;23;20022;-80
2022/11/28 11:28:42;;;;;;;23.58;15.25;;;8.90;99.90;;;;;;6007708;23;20417;-79
2022/11/28 11:31:33;;;;;;;22.63;14.13;;;9.10;99.90;;;;;;6004257;23;20081;-79
2022/11/28 11:34:05;;;;;;;23.05;14.90;;;9.20;98.00;;;;;;6174081;23;20049;-79
2022/11/28 11:36:34;;;;;;;23.83;15.07;;;9.20;98.80;;;;;;6162130;23;20017;-79
2022/11/28 11:39:15;;;;;;;25.85;16.23;;;9.30;98.10;;;;;;6126127;23;20024;-77
2022/11/28 11:41:45;;;;;;;26.88;16.35;;;9.40;98.10;;;;;;6161340;23;20065;-78
2022/11/28 11:44:33;;;;;;;23.98;14.98;;;9.40;97.40;;;;;;6161856;23;20022;-77
2022/11/28 11:47:04;;;;;;;28.85;17.55;;;9.30;98.50;;;;;;6162704;23;20022;-78
2022/11/28 11:49:48;;;;;;;23.33;15.77;;;9.40;99.60;;;;;;6163166;23;20072;-81
2022/11/28 11:52:22;;;;;;;24.55;15.38;;;9.30;98.50;;;;;;6167087;23;20024;-79
2022/11/28 11:54:57;;;;;;;25.45;16.00;;;9.40;98.10;;;;;;6166243;23;20018;-78
2022/11/28 11:57:26;;;;;;;22.95;14.75;;;9.40;98.10;;;;;;6161945;23;20077;-79
2022/11/28 11:59:56;;;;;;;26.73;16.70;;;9.50;95.60;;;;;;6162083;23;20020;-78
2022/11/28 12:02:31;;;;;;;25.58;16.52;;;9.40;96.00;;;;;;6162635;23;20439;-79
2022/11/28 12:05:04;;;;;;;28.45;17.38;;;9.40;96.40;;;;;;6162552;23;20013;-79
2022/11/28 12:07:36;;;;;;;33.83;20.48;;;9.40;97.00;;;;;;6161947;23;20122;-79
2022/11/28 12:10:07;;;;;;;39.90;23.13;;;9.30;96.60;;;;;;6161154;23;20021;-78
2022/11/28 12:12:36;;;;;;;36.95;22.13;;;8.90;99.90;;;;;;6160064;23;20021;-77
2022/11/28 12:15:19;;;;;;;36.40;22.95;;;8.60;99.90;;;;;;6126299;23;20395;-79
2022/11/28 12:18:23;;;;;;;41.60;24.48;;;8.60;99.90;;;;;;6127987;23;20435;-83
2022/11/28 12:21:06;;;;;;;40.75;24.77;;;8.80;99.90;;;;;;6125523;23;20024;-84
2022/11/28 12:23:54;;;;;;;35.67;21.85;;;8.80;99.90;;;;;;6129751;23;20100;-79
2022/11/28 12:26:27;;;;;;;34.85;19.83;;;9.10;99.90;;;;;;6163440;23;20085;-80
2022/11/28 12:29:10;;;;;;;29.25;18.67;;;9.10;99.90;;;;;;6163360;23;20018;-83
2022/11/28 12:31:49;;;;;;;31.98;18.90;;;8.90;99.90;;;;;;6173029;23;20017;-80
2022/11/28 12:34:27;;;;;;;29.83;18.83;;;8.60;99.90;;;;;;6157024;23;20019;-80
2022/11/28 12:37:11;;;;;;;29.63;17.90;;;8.40;99.90;;;;;;6194197;23;20017;-88
2022/11/28 12:39:53;;;;;;;28.58;18.50;;;8.30;99.90;;;;;;6193901;23;20589;-79
2022/11/28 12:45:26;;;;;;;32.88;18.65;;;8.20;99.90;;;;;;6116869;23;20199;-78
2022/11/28 12:48:07;;;;;;;31.50;18.10;;;8.10;99.90;;;;;;6094454;23;20514;-77
2022/11/28 12:50:39;;;;;;;32.65;20.17;;;8.00;99.90;;;;;;6135331;23;20085;-77
2022/11/28 12:53:53;;;;;;;32.05;19.67;;;8.00;99.90;;;;;;6149425;23;20025;-78
2022/11/28 12:56:37;;;;;;;41.58;22.77;;;8.00;99.90;;;;;;6127578;23;20510;-78
2022/11/28 12:59:12;;;;;;;35.20;21.20;;;8.00;99.90;;;;;;6128810;23;20438;-76
2022/11/28 13:01:54;;;;;;;33.35;20.58;;;8.00;99.90;;;;;;6163498;23;20321;-76